Messages - map view · info · telemetry · weather · raw · status · beacons · messages · bulletins · browse · moving · my account
Callsign:
Show:

Loading message packets...

APRS messages are stored for 14 days. It is possible to search using wildcards (*?) after a prefix.

2019-04-21 00:51:42 EDT: XE1KYA-5>XE1KYA-9: ok
2019-04-21 00:51:51 EDT: SMSGTE>VE7BTE-7: @me Where are you?
2019-04-21 00:51:52 EDT: XE1KYA-5>XE1KYA-9: pruebas
2019-04-21 00:51:53 EDT: XE1KYA-5>XE1KYA-9: okokokokojshdhdjsjjahsheubsbsjdj
2019-04-21 00:52:01 EDT: VK3GWK-9>VK3CVD-9: hi ike
2019-04-21 00:52:09 EDT: XE1KYA-5>XE1KYA-9: okokoko
2019-04-21 00:52:19 EDT: XE1KYA-5>XE1KYA-9: qcqcqcqcqcqcqcqcq qcq q q qccc cqcqcqcq
2019-04-21 00:52:22 EDT: XE1KYA-5>XE1KYA-9: idjdhdhdhjwheje
2019-04-21 00:52:26 EDT: XE1KYA-5>XE1KYA-9: perfecto
2019-04-21 00:52:27 EDT: KM4KAW-9>KM4KAW: SitRep: 10.57304 57.08f
2019-04-21 00:52:37 EDT: JG6YCL>JR6BJN-9: %JG6YJC-8 JR6BJN-9, 8 km
2019-04-21 00:52:37 EDT: JG6YCL>JA6IJW-9: %JF3UYN-9 JA6IJW-9, 9 km
2019-04-21 00:52:39 EDT: XE1KYA-5>XE1KYA-9: listo
2019-04-21 00:52:47 EDT: QMWMWW>BOM_CANCL: 211400z,WIND,QLD_MW009-011
2019-04-21 00:52:47 EDT: QMWMWW>BOMQMW: Cancellation of Wind Warning for coastal waters between St
2019-04-21 00:52:47 EDT: QMWMWW>BOMQMW: Lawrence and Burnett Heads and between Sandy Cape and
2019-04-21 00:52:47 EDT: QMWMWW>BOMQMW: Double Island Point for Sunday
2019-04-21 00:52:47 EDT: SHLBTP>SHLBTP: Info - Cabinet Temp = 59.5F Vcc = 13.6V
2019-04-21 00:52:50 EDT: XE1KYA-5>XE1KYA-9: cqcqcqcqcq
2019-04-21 00:52:50 EDT: JR6BJN-9>JG6YCL: AA:%TNX!MSG! 73
2019-04-21 00:52:56 EDT: XE1KYA-5>XE1KYA-9: okondgsueuehebbdidjdbdjdjjdbejeisjsvehwjsuwvebjeuejsususywvvejeudhd
2019-04-21 00:53:01 EDT: VK3GWK-9>VK3CVD-9: hi ike
2019-04-21 00:53:09 EDT: XE1KYA-5>XE1KYA-9: oko
2019-04-21 00:53:16 EDT: XE1KYA-5>XE1KYA-9: cqcqcqcqcqcqcqcqcqcqcqcqcqcqcqcqc
2019-04-21 00:53:17 EDT: XE1KYA-5>XE1KYA-9: jshsjdjjd
2019-04-21 00:53:20 EDT: N7QME-2>N7QME: 13.48 66.0 51 18
2019-04-21 00:53:22 EDT: SMSGTE>VE7BTE-7: @me Where are you?
2019-04-21 00:53:27 EDT: XE1KYA-5>XE1KYA-9: okondgsueuehebbdidjdbdjdjjdbejeisjsvehwjsuwvebjeuejsususywvvejeudhd
2019-04-21 00:53:28 EDT: XE1KYA-5>XE1KYA-9: cqcqcqcq
2019-04-21 00:53:39 EDT: XE1KYA-5>XE1KYA-9: okokoko
2019-04-21 00:53:40 EDT: XE1KYA-5>XE1KYA-9: oko
2019-04-21 00:53:49 EDT: LU1HVK-1>APRS: lu1hvk@qsl.net Saludos de Leones - Cordoba AR...
2019-04-21 00:54:06 EDT: VK2GJ-2>VK2GJ-7: Directs=VK2RHR-1 VK2AMW-1
2019-04-21 00:54:20 EDT: XE1KYA-5>XE1KYA-9: qcqcqcqcqcqcqcqcq qcq q q qccc cqcqcqcq
2019-04-21 00:54:24 EDT: XE1KYA-5>XE1KYA-9: listo
2019-04-21 00:54:27 EDT: XE1KYA-5>XE1KYA-9: okondgsueuehebbdidjdbdjdjjdbejeisjsvehwjsuwvebjeuejsususywvvejeudhd
2019-04-21 00:54:36 EDT: XE1KYA-5>XE1KYA-9: liksto
2019-04-21 00:54:40 EDT: XE1KYA-5>XE1KYA-9: oko
2019-04-21 00:54:48 EDT: XE1KYA-5>XE1KYA-9: jshsjdjjd
2019-04-21 00:54:49 EDT: DB0LUH-1>LU1HVK-1: rejUISS54}
2019-04-21 00:54:50 EDT: XE1KYA-5>XE1KYA-9: cqcqcqcqcq
2019-04-21 00:55:05 EDT: DB0TS-10>DB0TS-9: T#001,000,000,000,000,000,00000000,Test
2019-04-21 00:55:15 EDT: XE1KYA-5>XE1KYA-9: ok
2019-04-21 00:55:22 EDT: SMSGTE>VE7BTE-7: @me Where are you?
2019-04-21 00:55:32 EDT: XE1KYA-5>XE1KYA-9: okokokokokokokokokokokonokokokokokoko
2019-04-21 00:55:39 EDT: MTHOOD>N7QME: hum 51 12 84
2019-04-21 00:55:40 EDT: N7QME-2>N7QME: temps 68.3 66.9 59.2 63.0 60.5 62.1 67.8 88.6
2019-04-21 00:56:44 EDT: G0RSQ>G4FKH: A,-94.4,-104,-105.3,B,-88.6,-97.3,-98.4,C,-102.4,-112,-113.2,D,-86.3,-102.9,-103.9,E,-98.9,-113.1,-114.4
2019-04-21 00:57:27 EDT: KM4KAW-9>KM4KAW: SitRep: 10.60852 56.86f
2019-04-21 00:57:42 EDT: VK2GJ-2>VK2GJ-7: Directs=VK2AMW-1
< previous
FAQ · Blog · Discussion group · Linking to aprs.fi · AIS sites · Service status · Database statistics · Advertising on aprs.fi · Technical details · API · Change log · Planned changes · Credits and thanks · Terms Of Service · iPhone/iPad APRS